sensor_id;sensor_type;location;lat;lon;timestamp;temperature;humidity
21906;DHT22;11117;48.644;9.006;2022-08-01T00:02:11;18.90;90.50
21906;DHT22;11117;48.644;9.006;2022-08-01T00:04:37;18.90;90.40
21906;DHT22;11117;48.644;9.006;2022-08-01T00:07:04;18.90;90.50
21906;DHT22;11117;48.644;9.006;2022-08-01T00:09:29;18.90;90.40
21906;DHT22;11117;48.644;9.006;2022-08-01T00:11:55;18.90;90.50
21906;DHT22;11117;48.644;9.006;2022-08-01T00:14:20;18.90;90.80
21906;DHT22;11117;48.644;9.006;2022-08-01T00:16:46;18.90;90.30
21906;DHT22;11117;48.644;9.006;2022-08-01T00:19:12;19.00;90.30
21906;DHT22;11117;48.644;9.006;2022-08-01T00:21:37;19.00;90.40
21906;DHT22;11117;48.644;9.006;2022-08-01T00:24:03;19.00;90.40
21906;DHT22;11117;48.644;9.006;2022-08-01T00:26:29;19.00;90.40
21906;DHT22;11117;48.644;9.006;2022-08-01T00:28:54;18.90;91.10
21906;DHT22;11117;48.644;9.006;2022-08-01T00:31:20;18.90;91.20
21906;DHT22;11117;48.644;9.006;2022-08-01T00:33:45;18.80;91.10
21906;DHT22;11117;48.644;9.006;2022-08-01T00:36:11;18.80;91.50
21906;DHT22;11117;48.644;9.006;2022-08-01T00:38:36;18.60;91.60
21906;DHT22;11117;48.644;9.006;2022-08-01T00:41:02;18.60;91.60
21906;DHT22;11117;48.644;9.006;2022-08-01T00:43:28;18.60;91.70
21906;DHT22;11117;48.644;9.006;2022-08-01T00:45:53;18.50;91.80
21906;DHT22;11117;48.644;9.006;2022-08-01T00:48:19;18.60;91.80
21906;DHT22;11117;48.644;9.006;2022-08-01T00:50:45;18.60;91.80
21906;DHT22;11117;48.644;9.006;2022-08-01T00:53:10;18.40;91.90
21906;DHT22;11117;48.644;9.006;2022-08-01T00:55:36;18.50;92.20
21906;DHT22;11117;48.644;9.006;2022-08-01T00:58:02;18.40;92.40
21906;DHT22;11117;48.644;9.006;2022-08-01T01:00:27;18.40;92.50
21906;DHT22;11117;48.644;9.006;2022-08-01T01:02:53;18.30;93.00
21906;DHT22;11117;48.644;9.006;2022-08-01T01:05:19;18.30;93.00
21906;DHT22;11117;48.644;9.006;2022-08-01T01:08:30;18.20;92.90
21906;DHT22;11117;48.644;9.006;2022-08-01T01:10:54;18.20;93.00
21906;DHT22;11117;48.644;9.006;2022-08-01T01:15:59;18.00;93.30
21906;DHT22;11117;48.644;9.006;2022-08-01T01:18:35;18.00;93.40
21906;DHT22;11117;48.644;9.006;2022-08-01T01:24:24;18.00;93.30
21906;DHT22;11117;48.644;9.006;2022-08-01T01:27:14;18.00;93.60
21906;DHT22;11117;48.644;9.006;2022-08-01T01:29:51;18.00;93.70
21906;DHT22;11117;48.644;9.006;2022-08-01T01:32:43;17.90;93.80
21906;DHT22;11117;48.644;9.006;2022-08-01T01:35:31;17.90;94.00
21906;DHT22;11117;48.644;9.006;2022-08-01T01:38:21;17.80;94.30
21906;DHT22;11117;48.644;9.006;2022-08-01T01:40:47;17.80;94.40
21906;DHT22;11117;48.644;9.006;2022-08-01T01:43:15;17.80;94.50
21906;DHT22;11117;48.644;9.006;2022-08-01T01:45:42;17.70;94.50
21906;DHT22;11117;48.644;9.006;2022-08-01T01:48:13;17.70;94.60
21906;DHT22;11117;48.644;9.006;2022-08-01T01:50:39;17.80;94.70
21906;DHT22;11117;48.644;9.006;2022-08-01T01:53:07;17.80;94.50
21906;DHT22;11117;48.644;9.006;2022-08-01T01:55:35;17.80;94.70
21906;DHT22;11117;48.644;9.006;2022-08-01T01:58:02;17.80;94.80
21906;DHT22;11117;48.644;9.006;2022-08-01T02:00:29;17.70;94.80
21906;DHT22;11117;48.644;9.006;2022-08-01T02:03:00;17.80;95.00
21906;DHT22;11117;48.644;9.006;2022-08-01T02:05:27;17.70;95.10
21906;DHT22;11117;48.644;9.006;2022-08-01T02:07:54;17.70;95.20
21906;DHT22;11117;48.644;9.006;2022-08-01T02:10:20;17.70;95.30
21906;DHT22;11117;48.644;9.006;2022-08-01T02:12:48;17.60;95.50
21906;DHT22;11117;48.644;9.006;2022-08-01T02:15:15;17.70;95.70
21906;DHT22;11117;48.644;9.006;2022-08-01T02:17:45;17.60;95.80
21906;DHT22;11117;48.644;9.006;2022-08-01T02:20:12;17.60;95.90
21906;DHT22;11117;48.644;9.006;2022-08-01T02:22:52;17.60;96.20
21906;DHT22;11117;48.644;9.006;2022-08-01T02:25:22;17.60;96.40
21906;DHT22;11117;48.644;9.006;2022-08-01T02:28:13;17.50;96.70
21906;DHT22;11117;48.644;9.006;2022-08-01T02:30:44;17.50;97.10
21906;DHT22;11117;48.644;9.006;2022-08-01T02:35:41;17.50;97.60
21906;DHT22;11117;48.644;9.006;2022-08-01T02:38:09;17.50;97.70
21906;DHT22;11117;48.644;9.006;2022-08-01T02:40:38;17.50;98.00
21906;DHT22;11117;48.644;9.006;2022-08-01T02:43:05;17.40;98.40
21906;DHT22;11117;48.644;9.006;2022-08-01T02:45:33;17.40;98.70
21906;DHT22;11117;48.644;9.006;2022-08-01T02:48:12;17.30;99.10
21906;DHT22;11117;48.644;9.006;2022-08-01T02:50:42;17.20;99.30
21906;DHT22;11117;48.644;9.006;2022-08-01T02:53:08;17.20;99.90
21906;DHT22;11117;48.644;9.006;2022-08-01T02:55:35;17.20;99.90
21906;DHT22;11117;48.644;9.006;2022-08-01T02:58:03;17.10;99.90
21906;DHT22;11117;48.644;9.006;2022-08-01T03:00:31;17.10;99.90
21906;DHT22;11117;48.644;9.006;2022-08-01T03:02:59;17.00;99.90
21906;DHT22;11117;48.644;9.006;2022-08-01T03:05:25;16.90;99.90
21906;DHT22;11117;48.644;9.006;2022-08-01T03:07:53;16.90;99.90
21906;DHT22;11117;48.644;9.006;2022-08-01T03:10:19;16.80;99.90
21906;DHT22;11117;48.644;9.006;2022-08-01T03:12:47;16.80;99.90
21906;DHT22;11117;48.644;9.006;2022-08-01T03:15:15;16.70;99.90
21906;DHT22;11117;48.644;9.006;2022-08-01T03:17:43;16.60;99.90
21906;DHT22;11117;48.644;9.006;2022-08-01T03:20:11;16.50;99.90
21906;DHT22;11117;48.644;9.006;2022-08-01T03:22:39;16.50;99.90
21906;DHT22;11117;48.644;9.006;2022-08-01T03:25:06;16.50;99.90
21906;DHT22;11117;48.644;9.006;2022-08-01T03:27:32;16.40;99.90
21906;DHT22;11117;48.644;9.006;2022-08-01T03:29:59;16.40;99.90
21906;DHT22;11117;48.644;9.006;2022-08-01T03:32:28;16.40;99.90
21906;DHT22;11117;48.644;9.006;2022-08-01T03:34:54;16.40;99.90
21906;DHT22;11117;48.644;9.006;2022-08-01T03:37:28;16.30;99.90
21906;DHT22;11117;48.644;9.006;2022-08-01T03:40:05;16.40;99.90
21906;DHT22;11117;48.644;9.006;2022-08-01T03:42:38;16.30;99.90
21906;DHT22;11117;48.644;9.006;2022-08-01T03:45:09;16.30;99.90
21906;DHT22;11117;48.644;9.006;2022-08-01T03:47:36;16.40;99.90
21906;DHT22;11117;48.644;9.006;2022-08-01T03:50:06;16.40;99.90
21906;DHT22;11117;48.644;9.006;2022-08-01T03:52:34;16.40;99.90
21906;DHT22;11117;48.644;9.006;2022-08-01T03:55:05;16.30;99.90
21906;DHT22;11117;48.644;9.006;2022-08-01T03:57:32;16.40;99.90
21906;DHT22;11117;48.644;9.006;2022-08-01T03:59:58;16.50;99.90
21906;DHT22;11117;48.644;9.006;2022-08-01T04:02:26;16.50;99.90
21906;DHT22;11117;48.644;9.006;2022-08-01T04:04:52;16.50;99.90
21906;DHT22;11117;48.644;9.006;2022-08-01T04:07:26;16.50;99.90
21906;DHT22;11117;48.644;9.006;2022-08-01T04:09:52;16.60;99.90
21906;DHT22;11117;48.644;9.006;2022-08-01T04:12:18;16.60;99.90
21906;DHT22;11117;48.644;9.006;2022-08-01T04:14:44;16.70;99.90
21906;DHT22;11117;48.644;9.006;2022-08-01T04:17:10;16.70;99.90
21906;DHT22;11117;48.644;9.006;2022-08-01T04:19:35;16.80;99.90
21906;DHT22;11117;48.644;9.006;2022-08-01T04:22:01;16.80;99.90
21906;DHT22;11117;48.644;9.006;2022-08-01T04:24:28;16.90;99.90
21906;DHT22;11117;48.644;9.006;2022-08-01T04:26:55;17.00;99.90
21906;DHT22;11117;48.644;9.006;2022-08-01T04:29:21;17.00;99.90
21906;DHT22;11117;48.644;9.006;2022-08-01T04:31:49;17.10;99.90
21906;DHT22;11117;48.644;9.006;2022-08-01T04:34:17;17.20;99.90
21906;DHT22;11117;48.644;9.006;2022-08-01T04:36:48;17.20;99.90
21906;DHT22;11117;48.644;9.006;2022-08-01T04:39:15;17.30;99.90
21906;DHT22;11117;48.644;9.006;2022-08-01T04:41:42;17.40;99.90
21906;DHT22;11117;48.644;9.006;2022-08-01T04:44:08;17.40;99.90
21906;DHT22;11117;48.644;9.006;2022-08-01T04:46:35;17.60;99.90
21906;DHT22;11117;48.644;9.006;2022-08-01T04:49:04;17.60;99.90
21906;DHT22;11117;48.644;9.006;2022-08-01T04:51:30;17.70;99.90
21906;DHT22;11117;48.644;9.006;2022-08-01T04:53:56;17.70;99.90
21906;DHT22;11117;48.644;9.006;2022-08-01T04:56:21;17.80;99.90
21906;DHT22;11117;48.644;9.006;2022-08-01T04:58:47;18.00;99.90
21906;DHT22;11117;48.644;9.006;2022-08-01T05:01:13;18.40;99.90
21906;DHT22;11117;48.644;9.006;2022-08-01T05:03:38;18.70;99.90
21906;DHT22;11117;48.644;9.006;2022-08-01T05:06:04;19.10;99.90
21906;DHT22;11117;48.644;9.006;2022-08-01T05:08:30;19.40;99.90
21906;DHT22;11117;48.644;9.006;2022-08-01T05:10:56;19.70;99.90
21906;DHT22;11117;48.644;9.006;2022-08-01T05:13:21;20.10;99.50
21906;DHT22;11117;48.644;9.006;2022-08-01T05:15:47;20.40;98.60
21906;DHT22;11117;48.644;9.006;2022-08-01T05:18:12;20.80;97.50
21906;DHT22;11117;48.644;9.006;2022-08-01T05:20:38;21.20;96.60
21906;DHT22;11117;48.644;9.006;2022-08-01T05:23:04;21.50;96.20
21906;DHT22;11117;48.644;9.006;2022-08-01T05:25:30;21.60;95.20
21906;DHT22;11117;48.644;9.006;2022-08-01T05:27:55;21.70;95.50
21906;DHT22;11117;48.644;9.006;2022-08-01T05:30:21;21.70;95.40
21906;DHT22;11117;48.644;9.006;2022-08-01T05:32:47;21.60;95.80
21906;DHT22;11117;48.644;9.006;2022-08-01T05:35:12;21.70;95.50
21906;DHT22;11117;48.644;9.006;2022-08-01T05:37:38;21.90;95.10
21906;DHT22;11117;48.644;9.006;2022-08-01T05:40:04;22.20;95.10
21906;DHT22;11117;48.644;9.006;2022-08-01T05:42:30;22.40;94.80
21906;DHT22;11117;48.644;9.006;2022-08-01T05:44:56;22.60;94.40
21906;DHT22;11117;48.644;9.006;2022-08-01T05:47:21;22.80;93.90
21906;DHT22;11117;48.644;9.006;2022-08-01T05:49:47;23.10;93.60
21906;DHT22;11117;48.644;9.006;2022-08-01T05:52:12;23.30;93.20
21906;DHT22;11117;48.644;9.006;2022-08-01T05:54:38;23.20;93.30
21906;DHT22;11117;48.644;9.006;2022-08-01T05:57:04;22.90;93.10
21906;DHT22;11117;48.644;9.006;2022-08-01T05:59:30;22.70;93.10
21906;DHT22;11117;48.644;9.006;2022-08-01T06:01:55;22.60;93.00
21906;DHT22;11117;48.644;9.006;2022-08-01T06:04:21;22.40;93.30
21906;DHT22;11117;48.644;9.006;2022-08-01T06:06:47;22.20;93.80
21906;DHT22;11117;48.644;9.006;2022-08-01T06:09:13;22.10;93.90
21906;DHT22;11117;48.644;9.006;2022-08-01T06:11:38;22.10;94.00
21906;DHT22;11117;48.644;9.006;2022-08-01T06:14:04;22.10;93.90
21906;DHT22;11117;48.644;9.006;2022-08-01T06:16:30;22.10;94.00
21906;DHT22;11117;48.644;9.006;2022-08-01T06:18:55;22.10;93.70
21906;DHT22;11117;48.644;9.006;2022-08-01T06:21:21;22.30;93.60
21906;DHT22;11117;48.644;9.006;2022-08-01T06:23:46;22.40;93.30
21906;DHT22;11117;48.644;9.006;2022-08-01T06:26:12;22.40;93.20
21906;DHT22;11117;48.644;9.006;2022-08-01T06:28:38;22.60;93.30
21906;DHT22;11117;48.644;9.006;2022-08-01T06:31:03;22.60;92.90
21906;DHT22;11117;48.644;9.006;2022-08-01T06:33:29;22.60;93.30
21906;DHT22;11117;48.644;9.006;2022-08-01T06:35:58;22.50;93.30
21906;DHT22;11117;48.644;9.006;2022-08-01T06:38:23;22.50;93.40
21906;DHT22;11117;48.644;9.006;2022-08-01T06:40:49;22.50;93.50
21906;DHT22;11117;48.644;9.006;2022-08-01T06:43:14;22.70;93.50
21906;DHT22;11117;48.644;9.006;2022-08-01T06:45:40;22.90;93.30
21906;DHT22;11117;48.644;9.006;2022-08-01T06:48:06;23.10;93.20
21906;DHT22;11117;48.644;9.006;2022-08-01T06:50:32;23.30;93.00
21906;DHT22;11117;48.644;9.006;2022-08-01T06:53:00;23.40;92.40
21906;DHT22;11117;48.644;9.006;2022-08-01T06:55:26;23.30;92.70
21906;DHT22;11117;48.644;9.006;2022-08-01T06:57:52;23.20;92.50
21906;DHT22;11117;48.644;9.006;2022-08-01T07:00:20;23.20;92.80
21906;DHT22;11117;48.644;9.006;2022-08-01T07:02:46;23.10;92.70
21906;DHT22;11117;48.644;9.006;2022-08-01T07:05:12;23.00;93.20
21906;DHT22;11117;48.644;9.006;2022-08-01T07:07:37;23.10;93.40
21906;DHT22;11117;48.644;9.006;2022-08-01T07:10:03;23.20;93.20
21906;DHT22;11117;48.644;9.006;2022-08-01T07:12:29;23.20;92.70
21906;DHT22;11117;48.644;9.006;2022-08-01T07:14:54;23.20;92.90
21906;DHT22;11117;48.644;9.006;2022-08-01T07:17:20;23.20;92.20
21906;DHT22;11117;48.644;9.006;2022-08-01T07:19:46;23.20;92.60
21906;DHT22;11117;48.644;9.006;2022-08-01T07:22:17;23.40;92.70
21906;DHT22;11117;48.644;9.006;2022-08-01T07:24:43;23.50;91.60
21906;DHT22;11117;48.644;9.006;2022-08-01T07:27:08;23.50;91.50
21906;DHT22;11117;48.644;9.006;2022-08-01T07:29:34;23.60;91.00
21906;DHT22;11117;48.644;9.006;2022-08-01T07:32:00;23.50;91.30
21906;DHT22;11117;48.644;9.006;2022-08-01T07:34:26;23.70;91.30
21906;DHT22;11117;48.644;9.006;2022-08-01T07:36:52;23.80;91.20
21906;DHT22;11117;48.644;9.006;2022-08-01T07:39:18;23.50;90.60
21906;DHT22;11117;48.644;9.006;2022-08-01T07:41:43;23.50;90.70
21906;DHT22;11117;48.644;9.006;2022-08-01T07:44:09;23.60;90.80
21906;DHT22;11117;48.644;9.006;2022-08-01T07:46:34;23.60;90.50
21906;DHT22;11117;48.644;9.006;2022-08-01T07:49:00;23.60;90.60
21906;DHT22;11117;48.644;9.006;2022-08-01T07:51:25;23.50;90.80
21906;DHT22;11117;48.644;9.006;2022-08-01T07:53:52;23.80;91.00
21906;DHT22;11117;48.644;9.006;2022-08-01T07:56:19;24.00;90.90
21906;DHT22;11117;48.644;9.006;2022-08-01T07:58:44;23.90;90.80
21906;DHT22;11117;48.644;9.006;2022-08-01T08:01:10;23.60;90.60
21906;DHT22;11117;48.644;9.006;2022-08-01T08:03:35;23.80;90.30
21906;DHT22;11117;48.644;9.006;2022-08-01T08:06:01;23.80;90.30
21906;DHT22;11117;48.644;9.006;2022-08-01T08:08:26;24.00;90.70
21906;DHT22;11117;48.644;9.006;2022-08-01T08:10:52;24.30;90.40
21906;DHT22;11117;48.644;9.006;2022-08-01T08:13:18;24.30;89.50
21906;DHT22;11117;48.644;9.006;2022-08-01T08:15:43;24.20;89.30
21906;DHT22;11117;48.644;9.006;2022-08-01T08:18:12;24.50;90.20
21906;DHT22;11117;48.644;9.006;2022-08-01T08:20:38;24.80;89.00
21906;DHT22;11117;48.644;9.006;2022-08-01T08:23:03;24.60;89.60
21906;DHT22;11117;48.644;9.006;2022-08-01T08:25:29;24.70;88.60
21906;DHT22;11117;48.644;9.006;2022-08-01T08:27:54;25.20;88.00
21906;DHT22;11117;48.644;9.006;2022-08-01T08:30:20;25.60;87.90
21906;DHT22;11117;48.644;9.006;2022-08-01T08:32:46;25.70;86.90
21906;DHT22;11117;48.644;9.006;2022-08-01T08:35:11;25.80;85.20
21906;DHT22;11117;48.644;9.006;2022-08-01T08:37:37;25.40;85.90
21906;DHT22;11117;48.644;9.006;2022-08-01T08:40:05;25.20;84.80
21906;DHT22;11117;48.644;9.006;2022-08-01T08:42:31;25.30;85.80
21906;DHT22;11117;48.644;9.006;2022-08-01T08:44:57;25.20;87.20
21906;DHT22;11117;48.644;9.006;2022-08-01T08:47:24;25.40;86.50
21906;DHT22;11117;48.644;9.006;2022-08-01T08:49:53;25.70;85.90
21906;DHT22;11117;48.644;9.006;2022-08-01T08:52:20;26.00;83.80
21906;DHT22;11117;48.644;9.006;2022-08-01T08:54:47;26.30;84.10
21906;DHT22;11117;48.644;9.006;2022-08-01T08:57:13;26.50;83.00
21906;DHT22;11117;48.644;9.006;2022-08-01T08:59:39;26.70;83.00
21906;DHT22;11117;48.644;9.006;2022-08-01T09:02:05;26.80;81.60
21906;DHT22;11117;48.644;9.006;2022-08-01T09:04:32;27.30;81.60
21906;DHT22;11117;48.644;9.006;2022-08-01T09:06:58;27.20;81.10
21906;DHT22;11117;48.644;9.006;2022-08-01T09:09:23;27.70;79.30
21906;DHT22;11117;48.644;9.006;2022-08-01T09:11:49;28.00;79.00
21906;DHT22;11117;48.644;9.006;2022-08-01T09:14:18;28.20;78.30
21906;DHT22;11117;48.644;9.006;2022-08-01T09:16:45;27.80;77.60
21906;DHT22;11117;48.644;9.006;2022-08-01T09:19:16;27.70;78.30
21906;DHT22;11117;48.644;9.006;2022-08-01T09:21:59;27.70;78.30
21906;DHT22;11117;48.644;9.006;2022-08-01T09:24:26;27.70;77.30
21906;DHT22;11117;48.644;9.006;2022-08-01T09:26:54;27.90;78.10
21906;DHT22;11117;48.644;9.006;2022-08-01T09:29:23;27.50;77.10
21906;DHT22;11117;48.644;9.006;2022-08-01T09:31:50;27.70;77.50
21906;DHT22;11117;48.644;9.006;2022-08-01T09:34:16;27.70;77.20
21906;DHT22;11117;48.644;9.006;2022-08-01T09:36:54;28.20;78.10
21906;DHT22;11117;48.644;9.006;2022-08-01T09:39:25;28.60;76.60
21906;DHT22;11117;48.644;9.006;2022-08-01T09:41:51;29.00;75.60
21906;DHT22;11117;48.644;9.006;2022-08-01T09:44:18;29.30;74.90
21906;DHT22;11117;48.644;9.006;2022-08-01T09:46:54;29.80;74.50
21906;DHT22;11117;48.644;9.006;2022-08-01T09:49:31;30.20;71.50
21906;DHT22;11117;48.644;9.006;2022-08-01T09:51:59;30.00;72.00
21906;DHT22;11117;48.644;9.006;2022-08-01T09:54:51;29.90;71.70
21906;DHT22;11117;48.644;9.006;2022-08-01T09:57:19;29.00;71.20
21906;DHT22;11117;48.644;9.006;2022-08-01T09:59:50;28.90;72.40
21906;DHT22;11117;48.644;9.006;2022-08-01T10:02:29;28.60;73.50
21906;DHT22;11117;48.644;9.006;2022-08-01T10:04:55;28.60;72.80
21906;DHT22;11117;48.644;9.006;2022-08-01T10:07:21;28.60;72.70
21906;DHT22;11117;48.644;9.006;2022-08-01T10:09:47;28.50;73.10
21906;DHT22;11117;48.644;9.006;2022-08-01T10:12:16;28.40;76.10
21906;DHT22;11117;48.644;9.006;2022-08-01T10:14:43;28.50;75.20
21906;DHT22;11117;48.644;9.006;2022-08-01T10:17:12;28.30;76.10
21906;DHT22;11117;48.644;9.006;2022-08-01T10:19:40;28.20;76.20
21906;DHT22;11117;48.644;9.006;2022-08-01T10:22:12;28.50;76.50
21906;DHT22;11117;48.644;9.006;2022-08-01T10:24:38;28.00;76.40
21906;DHT22;11117;48.644;9.006;2022-08-01T10:27:06;28.00;76.10
21906;DHT22;11117;48.644;9.006;2022-08-01T10:29:42;28.40;76.60
21906;DHT22;11117;48.644;9.006;2022-08-01T10:32:09;28.10;74.80
21906;DHT22;11117;48.644;9.006;2022-08-01T10:34:36;28.30;75.20
21906;DHT22;11117;48.644;9.006;2022-08-01T10:37:02;28.40;74.50
21906;DHT22;11117;48.644;9.006;2022-08-01T10:39:28;28.60;74.80
21906;DHT22;11117;48.644;9.006;2022-08-01T10:41:57;28.30;75.90
21906;DHT22;11117;48.644;9.006;2022-08-01T10:44:24;28.10;75.20
21906;DHT22;11117;48.644;9.006;2022-08-01T10:47:04;27.70;75.90
21906;DHT22;11117;48.644;9.006;2022-08-01T10:49:40;27.70;76.80
21906;DHT22;11117;48.644;9.006;2022-08-01T10:52:06;27.30;76.90
21906;DHT22;11117;48.644;9.006;2022-08-01T10:54:38;27.50;76.50
21906;DHT22;11117;48.644;9.006;2022-08-01T10:57:04;27.70;75.70
21906;DHT22;11117;48.644;9.006;2022-08-01T10:59:29;27.70;75.40
21906;DHT22;11117;48.644;9.006;2022-08-01T11:07:11;27.10;77.00
21906;DHT22;11117;48.644;9.006;2022-08-01T11:09:39;27.00;78.10
21906;DHT22;11117;48.644;9.006;2022-08-01T11:12:08;27.00;78.00
21906;DHT22;11117;48.644;9.006;2022-08-01T11:15:15;27.20;78.40
21906;DHT22;11117;48.644;9.006;2022-08-01T11:17:50;27.30;77.40
21906;DHT22;11117;48.644;9.006;2022-08-01T11:20:35;27.30;77.60
21906;DHT22;11117;48.644;9.006;2022-08-01T11:28:17;27.60;76.60
21906;DHT22;11117;48.644;9.006;2022-08-01T11:30:45;27.90;76.50
21906;DHT22;11117;48.644;9.006;2022-08-01T11:33:12;28.00;76.10
21906;DHT22;11117;48.644;9.006;2022-08-01T11:35:38;28.30;75.20
21906;DHT22;11117;48.644;9.006;2022-08-01T11:38:26;28.60;74.40
21906;DHT22;11117;48.644;9.006;2022-08-01T11:41:14;28.60;74.10
21906;DHT22;11117;48.644;9.006;2022-08-01T11:43:56;28.60;73.50
21906;DHT22;11117;48.644;9.006;2022-08-01T11:51:47;29.10;71.30
21906;DHT22;11117;48.644;9.006;2022-08-01T11:54:13;28.80;71.10
21906;DHT22;11117;48.644;9.006;2022-08-01T11:56:39;28.00;72.40
21906;DHT22;11117;48.644;9.006;2022-08-01T11:59:05;27.80;74.30
21906;DHT22;11117;48.644;9.006;2022-08-01T12:01:31;27.50;75.10
21906;DHT22;11117;48.644;9.006;2022-08-01T12:03:57;27.40;75.80
21906;DHT22;11117;48.644;9.006;2022-08-01T12:06:31;27.30;75.80
21906;DHT22;11117;48.644;9.006;2022-08-01T12:09:21;27.20;75.80
21906;DHT22;11117;48.644;9.006;2022-08-01T12:11:47;27.30;75.30
21906;DHT22;11117;48.644;9.006;2022-08-01T12:14:19;27.30;75.80
21906;DHT22;11117;48.644;9.006;2022-08-01T12:16:54;27.60;76.20
21906;DHT22;11117;48.644;9.006;2022-08-01T12:19:23;27.80;75.20
21906;DHT22;11117;48.644;9.006;2022-08-01T12:24:38;28.40;72.20
21906;DHT22;11117;48.644;9.006;2022-08-01T12:27:05;28.70;71.40
21906;DHT22;11117;48.644;9.006;2022-08-01T12:29:36;29.20;70.50
21906;DHT22;11117;48.644;9.006;2022-08-01T12:32:03;29.50;68.90
21906;DHT22;11117;48.644;9.006;2022-08-01T12:34:29;29.40;67.80
21906;DHT22;11117;48.644;9.006;2022-08-01T12:37:00;29.30;68.40
21906;DHT22;11117;48.644;9.006;2022-08-01T12:39:32;29.30;68.80
21906;DHT22;11117;48.644;9.006;2022-08-01T12:41:58;29.30;68.20
21906;DHT22;11117;48.644;9.006;2022-08-01T12:44:26;29.10;68.10
21906;DHT22;11117;48.644;9.006;2022-08-01T12:46:53;28.70;68.60
21906;DHT22;11117;48.644;9.006;2022-08-01T12:49:19;28.20;71.40
21906;DHT22;11117;48.644;9.006;2022-08-01T12:51:45;28.00;71.50
21906;DHT22;11117;48.644;9.006;2022-08-01T12:54:10;27.90;72.10
21906;DHT22;11117;48.644;9.006;2022-08-01T12:56:42;27.80;72.70
21906;DHT22;11117;48.644;9.006;2022-08-01T12:59:27;28.10;72.70
21906;DHT22;11117;48.644;9.006;2022-08-01T13:01:56;28.00;71.90
21906;DHT22;11117;48.644;9.006;2022-08-01T13:04:22;28.30;71.80
21906;DHT22;11117;48.644;9.006;2022-08-01T13:06:52;28.60;71.50
21906;DHT22;11117;48.644;9.006;2022-08-01T13:09:18;29.00;70.40
21906;DHT22;11117;48.644;9.006;2022-08-01T13:11:47;29.30;69.60
21906;DHT22;11117;48.644;9.006;2022-08-01T13:14:28;29.70;67.80
21906;DHT22;11117;48.644;9.006;2022-08-01T13:16:54;29.90;66.80
21906;DHT22;11117;48.644;9.006;2022-08-01T13:19:20;30.10;67.90
21906;DHT22;11117;48.644;9.006;2022-08-01T13:21:56;30.10;66.90
21906;DHT22;11117;48.644;9.006;2022-08-01T13:24:24;29.90;67.00
21906;DHT22;11117;48.644;9.006;2022-08-01T13:26:55;29.50;68.00
21906;DHT22;11117;48.644;9.006;2022-08-01T13:29:35;29.00;68.50
21906;DHT22;11117;48.644;9.006;2022-08-01T13:32:15;28.70;68.60
21906;DHT22;11117;48.644;9.006;2022-08-01T13:34:40;28.60;68.70
21906;DHT22;11117;48.644;9.006;2022-08-01T13:37:06;28.60;69.40
21906;DHT22;11117;48.644;9.006;2022-08-01T13:39:32;28.60;69.50
21906;DHT22;11117;48.644;9.006;2022-08-01T13:41:57;28.60;69.80
21906;DHT22;11117;48.644;9.006;2022-08-01T13:44:23;28.50;69.60
21906;DHT22;11117;48.644;9.006;2022-08-01T13:46:48;28.50;71.20
21906;DHT22;11117;48.644;9.006;2022-08-01T13:49:14;28.80;70.90
21906;DHT22;11117;48.644;9.006;2022-08-01T13:51:39;28.60;70.40
21906;DHT22;11117;48.644;9.006;2022-08-01T13:54:05;28.90;70.20
21906;DHT22;11117;48.644;9.006;2022-08-01T13:56:32;28.80;70.40
21906;DHT22;11117;48.644;9.006;2022-08-01T13:58:57;28.80;70.30
21906;DHT22;11117;48.644;9.006;2022-08-01T14:01:24;28.40;71.00
21906;DHT22;11117;48.644;9.006;2022-08-01T14:03:50;28.20;71.20
21906;DHT22;11117;48.644;9.006;2022-08-01T14:06:16;27.90;72.50
21906;DHT22;11117;48.644;9.006;2022-08-01T14:08:43;27.80;72.40
21906;DHT22;11117;48.644;9.006;2022-08-01T14:11:09;27.90;72.80
21906;DHT22;11117;48.644;9.006;2022-08-01T14:13:34;27.80;71.90
21906;DHT22;11117;48.644;9.006;2022-08-01T14:16:00;27.80;72.50
21906;DHT22;11117;48.644;9.006;2022-08-01T14:18:26;28.00;73.40
21906;DHT22;11117;48.644;9.006;2022-08-01T14:20:52;28.30;72.50
21906;DHT22;11117;48.644;9.006;2022-08-01T14:23:17;28.30;72.40
21906;DHT22;11117;48.644;9.006;2022-08-01T14:25:43;28.00;72.90
21906;DHT22;11117;48.644;9.006;2022-08-01T14:28:09;27.90;72.60
21906;DHT22;11117;48.644;9.006;2022-08-01T14:30:35;27.90;73.50
21906;DHT22;11117;48.644;9.006;2022-08-01T14:33:00;27.90;73.20
21906;DHT22;11117;48.644;9.006;2022-08-01T14:35:26;27.90;73.10
21906;DHT22;11117;48.644;9.006;2022-08-01T14:37:54;27.90;73.30
21906;DHT22;11117;48.644;9.006;2022-08-01T14:40:20;27.90;72.80
21906;DHT22;11117;48.644;9.006;2022-08-01T14:42:45;27.60;72.80
21906;DHT22;11117;48.644;9.006;2022-08-01T14:45:12;27.80;73.50
21906;DHT22;11117;48.644;9.006;2022-08-01T14:47:39;27.80;73.50
21906;DHT22;11117;48.644;9.006;2022-08-01T14:50:07;28.10;73.70
21906;DHT22;11117;48.644;9.006;2022-08-01T14:52:33;28.00;72.90
21906;DHT22;11117;48.644;9.006;2022-08-01T14:54:59;27.90;73.20
21906;DHT22;11117;48.644;9.006;2022-08-01T14:57:25;27.90;74.40
21906;DHT22;11117;48.644;9.006;2022-08-01T14:59:50;27.80;73.90
21906;DHT22;11117;48.644;9.006;2022-08-01T15:02:16;28.10;74.20
21906;DHT22;11117;48.644;9.006;2022-08-01T15:04:42;28.20;74.30
21906;DHT22;11117;48.644;9.006;2022-08-01T15:07:08;28.00;73.60
21906;DHT22;11117;48.644;9.006;2022-08-01T15:09:33;28.10;73.90
21906;DHT22;11117;48.644;9.006;2022-08-01T15:11:59;27.90;73.90
21906;DHT22;11117;48.644;9.006;2022-08-01T15:14:25;27.80;74.10
21906;DHT22;11117;48.644;9.006;2022-08-01T15:16:50;27.70;74.40
21906;DHT22;11117;48.644;9.006;2022-08-01T15:19:16;27.70;74.90
21906;DHT22;11117;48.644;9.006;2022-08-01T15:21:41;27.50;75.50
21906;DHT22;11117;48.644;9.006;2022-08-01T15:24:08;27.60;76.40
21906;DHT22;11117;48.644;9.006;2022-08-01T15:26:33;27.70;75.00
21906;DHT22;11117;48.644;9.006;2022-08-01T15:28:59;27.90;74.50
21906;DHT22;11117;48.644;9.006;2022-08-01T15:31:24;27.90;74.10
21906;DHT22;11117;48.644;9.006;2022-08-01T15:33:50;27.90;75.00
21906;DHT22;11117;48.644;9.006;2022-08-01T15:36:16;27.90;75.10
21906;DHT22;11117;48.644;9.006;2022-08-01T15:38:41;27.80;74.50
21906;DHT22;11117;48.644;9.006;2022-08-01T15:41:07;27.80;75.20
21906;DHT22;11117;48.644;9.006;2022-08-01T15:43:32;27.50;74.60
21906;DHT22;11117;48.644;9.006;2022-08-01T15:45:58;27.30;74.90
21906;DHT22;11117;48.644;9.006;2022-08-01T15:48:27;27.40;75.20
21906;DHT22;11117;48.644;9.006;2022-08-01T15:50:52;27.40;75.40
21906;DHT22;11117;48.644;9.006;2022-08-01T15:53:21;27.40;74.70
21906;DHT22;11117;48.644;9.006;2022-08-01T15:55:49;27.30;74.60
21906;DHT22;11117;48.644;9.006;2022-08-01T15:58:15;27.30;74.90
21906;DHT22;11117;48.644;9.006;2022-08-01T16:00:41;27.50;74.80
21906;DHT22;11117;48.644;9.006;2022-08-01T16:03:07;27.40;74.80